createdAt,value
2022-11-24T00:00:42.325Z,100864.50
2022-11-24T00:03:12.224Z,100869.19
2022-11-24T00:05:42.120Z,100872.28
2022-11-24T00:08:12.562Z,100872.28
2022-11-24T00:10:43.411Z,100880.84
2022-11-24T00:13:13.437Z,100882.81
2022-11-24T00:15:43.338Z,100886.38
2022-11-24T00:18:13.840Z,100894.53
2022-11-24T00:20:43.812Z,100891.25
2022-11-24T00:23:13.609Z,100891.88
2022-11-24T00:25:43.620Z,100902.13
2022-11-24T00:28:13.476Z,100906.81
2022-11-24T00:30:43.771Z,100909.25
2022-11-24T00:33:13.812Z,100910.91
2022-11-24T00:35:43.678Z,100924.97
2022-11-24T00:38:13.524Z,100920.28
2022-11-24T00:40:43.596Z,100922.72
2022-11-24T00:43:13.454Z,100926.09
2022-11-24T00:45:44.844Z,100928.84
2022-11-24T00:48:14.977Z,100924.78
2022-11-24T00:50:44.869Z,100933.88
2022-11-24T00:53:14.709Z,100940.22
2022-11-24T00:55:44.542Z,100941.84
2022-11-24T00:58:14.678Z,100945.41
2022-11-24T01:00:44.531Z,100946.84
2022-11-24T01:03:18.990Z,100952.38
2022-11-24T01:05:49.182Z,100953.19
2022-11-24T01:08:19.381Z,100965.84
2022-11-24T01:10:49.471Z,100965.84
2022-11-24T01:13:19.320Z,100968.09
2022-11-24T01:15:49.416Z,100976.88
2022-11-24T01:18:19.223Z,100983.22
2022-11-24T01:20:49.057Z,100986.78
2022-11-24T01:23:18.881Z,100989.03
2022-11-24T01:25:48.692Z,100996.69
2022-11-24T01:28:18.784Z,101009.97
2022-11-24T01:30:49.649Z,101014.06
2022-11-24T01:33:31.938Z,101020.69
2022-11-24T01:36:02.362Z,101017.09
2022-11-24T01:38:32.658Z,101024.06
2022-11-24T01:41:14.602Z,101028.13
2022-11-24T01:43:46.481Z,101032.53
2022-11-24T01:46:21.983Z,101036.41
2022-11-24T01:49:05.657Z,101040.28
2022-11-24T01:51:39.126Z,101045.00
2022-11-24T01:54:15.385Z,101047.94
2022-11-24T01:56:51.895Z,101049.69
2022-11-24T01:59:26.866Z,101054.28
2022-11-24T02:01:58.650Z,101061.22
2022-11-24T02:04:34.415Z,101057.16
2022-11-24T02:07:07.992Z,101060.09
2022-11-24T02:10:02.300Z,101069.00
2022-11-24T02:12:32.527Z,101070.00
2022-11-24T02:15:02.758Z,101065.00
2022-11-24T02:17:32.847Z,101071.66
2022-11-24T02:20:07.181Z,101069.22
2022-11-24T02:22:59.598Z,101071.13
2022-11-24T02:25:43.013Z,101068.38
2022-11-24T02:28:17.909Z,101072.78
2022-11-24T02:30:48.312Z,101071.66
2022-11-24T02:33:19.215Z,101077.69
2022-11-24T02:35:49.184Z,101085.75
2022-11-24T02:38:19.089Z,101084.31
2022-11-24T02:40:52.219Z,101084.94
2022-11-24T02:43:25.532Z,101090.88
2022-11-24T02:45:55.400Z,101100.03
2022-11-24T02:48:25.294Z,101104.13
2022-11-24T02:50:55.204Z,101097.19
2022-11-24T02:53:25.169Z,101098.63
2022-11-24T02:55:55.372Z,101111.81
2022-11-24T02:58:25.444Z,101112.94
2022-11-24T03:00:56.609Z,101110.19
2022-11-24T03:03:26.650Z,101107.94
2022-11-24T03:05:57.772Z,101114.59
2022-11-24T03:08:27.482Z,101104.69
2022-11-24T03:10:57.587Z,101095.28
2022-11-24T03:13:27.429Z,101101.28
2022-11-24T03:15:57.428Z,101106.00
2022-11-24T03:18:27.350Z,101109.53
2022-11-24T03:21:02.700Z,101106.00
2022-11-24T03:23:32.780Z,101110.06
2022-11-24T03:26:17.375Z,101107.00
2022-11-24T03:28:47.547Z,101106.78
2022-11-24T03:31:19.285Z,101104.34
2022-11-24T03:33:49.375Z,101100.16
2022-11-24T03:36:19.279Z,101096.06
2022-11-24T03:38:49.175Z,101096.59
2022-11-24T03:41:19.238Z,101093.00
2022-11-24T03:43:49.098Z,101090.75
2022-11-24T03:46:19.214Z,101086.34
2022-11-24T03:48:49.328Z,101074.19
2022-11-24T03:51:19.123Z,101079.63
2022-11-24T03:53:49.030Z,101074.72
2022-11-24T03:56:19.180Z,101081.06
2022-11-24T03:58:49.040Z,101075.53
2022-11-24T04:01:19.003Z,101075.22
2022-11-24T04:03:48.887Z,101078.31
2022-11-24T04:06:18.759Z,101067.47
2022-11-24T04:08:48.663Z,101054.28
2022-11-24T04:11:38.057Z,101053.47
2022-11-24T04:14:13.228Z,101050.41
2022-11-24T04:16:43.977Z,101042.63
2022-11-24T04:19:14.423Z,101031.59
2022-11-24T04:21:44.658Z,101027.72
2022-11-24T04:24:14.959Z,101020.56
2022-11-24T04:26:45.140Z,101024.97
2022-11-24T04:29:15.333Z,101013.41
2022-11-24T04:31:45.551Z,101006.25
2022-11-24T04:34:15.793Z,100990.53
2022-11-24T04:36:45.792Z,100973.16
2022-11-24T04:39:24.790Z,100968.94
2022-11-24T04:41:57.819Z,100959.03
2022-11-24T04:44:28.041Z,100953.53
2022-11-24T04:46:58.344Z,100948.84
2022-11-24T04:49:28.552Z,100940.25
2022-11-24T04:51:58.908Z,100932.28
2022-11-24T04:54:29.166Z,100911.03
2022-11-24T04:56:59.366Z,100911.84
2022-11-24T04:59:29.663Z,100907.13
2022-11-24T05:02:00.012Z,100887.03
2022-11-24T05:04:30.297Z,100876.78
2022-11-24T05:07:00.535Z,100878.75
2022-11-24T05:09:54.899Z,100872.09
2022-11-24T05:12:22.229Z,100858.31
2022-11-24T05:14:54.184Z,100858.31
2022-11-24T05:17:24.414Z,100867.09
2022-11-24T05:19:54.599Z,100867.09
2022-11-24T05:22:24.924Z,100864.34
2022-11-24T05:24:55.176Z,100866.25
2022-11-24T05:27:25.780Z,100862.38
2022-11-24T05:29:56.140Z,100863.22
2022-11-24T05:32:26.730Z,100853.31
2022-11-24T05:34:57.083Z,100857.69
2022-11-24T05:37:27.913Z,100860.44
2022-11-24T05:39:58.132Z,100867.59
2022-11-24T05:42:47.672Z,100855.72
2022-11-24T05:45:21.509Z,100860.13
2022-11-24T05:47:53.702Z,100853.81
2022-11-24T05:50:25.317Z,100854.59
2022-11-24T05:52:55.644Z,100845.53
2022-11-24T05:55:25.832Z,100845.19
2022-11-24T05:58:01.608Z,100838.06
2022-11-24T06:00:33.719Z,100826.22
2022-11-24T06:03:05.046Z,100823.47
2022-11-24T06:05:35.533Z,100820.69
2022-11-24T06:08:06.056Z,100815.66
2022-11-24T06:10:36.359Z,100801.38
2022-11-24T06:13:10.267Z,100794.72
2022-11-24T06:15:42.526Z,100800.72
2022-11-24T06:18:12.977Z,100791.97
2022-11-24T06:20:49.107Z,100790.03
2022-11-24T06:23:33.379Z,100786.44
2022-11-24T06:26:04.233Z,100790.81
2022-11-24T06:28:34.834Z,100784.19
2022-11-24T06:31:06.787Z,100786.63
2022-11-24T06:33:39.551Z,100777.03
2022-11-24T06:36:15.190Z,100769.59
2022-11-24T06:38:45.542Z,100783.06
2022-11-24T06:41:17.975Z,100777.22
2022-11-24T06:43:49.785Z,100777.53
2022-11-24T06:46:20.129Z,100775.28
2022-11-24T06:48:50.696Z,100777.22
2022-11-24T06:51:21.261Z,100772.22
2022-11-24T06:53:51.580Z,100770.59
2022-11-24T06:56:23.168Z,100765.38
2022-11-24T06:58:55.281Z,100763.44
2022-11-24T07:01:28.264Z,100761.97
2022-11-24T07:03:59.623Z,100758.72
2022-11-24T07:06:30.691Z,100750.16
2022-11-24T07:09:00.899Z,100749.81
2022-11-24T07:11:31.272Z,100747.38
2022-11-24T07:14:03.262Z,100745.44
2022-11-24T07:16:33.859Z,100742.66
2022-11-24T07:19:05.041Z,100740.72
2022-11-24T07:21:35.475Z,100738.78
2022-11-24T07:24:06.471Z,100737.66
2022-11-24T07:26:39.443Z,100734.88
2022-11-24T07:29:09.648Z,100730.50
2022-11-24T07:31:40.120Z,100743.16
2022-11-24T07:34:10.394Z,100735.38
2022-11-24T07:36:40.638Z,100730.16
2022-11-24T07:39:10.841Z,100721.59
2022-11-24T07:41:41.162Z,100718.00
2022-11-24T07:44:11.420Z,100717.19
2022-11-24T07:46:41.725Z,100725.97
2022-11-24T07:49:11.961Z,100723.22
2022-11-24T07:51:42.054Z,100712.19
2022-11-24T07:54:12.556Z,100712.19
2022-11-24T07:56:42.780Z,100710.56
2022-11-24T07:59:12.936Z,100720.47
2022-11-24T08:01:43.201Z,100708.59
2022-11-24T08:04:13.411Z,100701.16
2022-11-24T08:06:47.299Z,100708.28
2022-11-24T08:09:17.930Z,100700.81
2022-11-24T08:11:48.153Z,100702.44
2022-11-24T08:14:18.390Z,100694.50
2022-11-24T08:16:48.654Z,100683.13
2022-11-24T08:19:18.845Z,100683.91
2022-11-24T08:21:48.872Z,100679.56
2022-11-24T08:24:19.312Z,100681.16
2022-11-24T08:26:49.593Z,100685.88
2022-11-24T08:29:19.765Z,100682.31
2022-11-24T08:31:49.944Z,100683.91
2022-11-24T08:34:20.138Z,100681.16
2022-11-24T08:36:50.293Z,100685.56
2022-11-24T08:39:21.300Z,100674.06
2022-11-24T08:41:51.076Z,100683.13
2022-11-24T08:44:21.152Z,100692.53
2022-11-24T08:46:52.432Z,100695.28
2022-11-24T08:49:23.772Z,100692.19
2022-11-24T08:51:54.179Z,100693.38
2022-11-24T08:54:25.178Z,100698.88
2022-11-24T08:56:55.454Z,100693.03
2022-11-24T08:59:25.788Z,100691.41
2022-11-24T09:01:56.012Z,100687.50
2022-11-24T09:04:26.316Z,100685.56
2022-11-24T09:06:56.631Z,100677.28
2022-11-24T09:09:26.850Z,100678.09
2022-11-24T09:11:56.897Z,100691.06
2022-11-24T09:14:27.010Z,100693.84
2022-11-24T09:16:57.056Z,100696.59
2022-11-24T09:19:27.203Z,100693.84
2022-11-24T09:21:57.789Z,100704.88
2022-11-24T09:24:28.511Z,100707.31
2022-11-24T09:26:59.232Z,100717.88
2022-11-24T09:29:29.410Z,100725.00
2022-11-24T09:32:03.616Z,100724.19
2022-11-24T09:34:37.027Z,100724.19
2022-11-24T09:37:07.276Z,100703.25
2022-11-24T09:39:37.511Z,100693.84
2022-11-24T09:42:22.390Z,100687.50
2022-11-24T09:44:55.405Z,100686.69
2022-11-24T09:47:31.453Z,100704.06
2022-11-24T09:50:14.196Z,100717.53
2022-11-24T09:52:56.502Z,100730.53
2022-11-24T09:55:29.661Z,100725.81
2022-11-24T09:58:37.772Z,100735.22
2022-11-24T10:01:17.501Z,100735.22
2022-11-24T10:03:54.077Z,100732.47
2022-11-24T10:06:41.439Z,100726.16
2022-11-24T10:09:22.499Z,100715.91
2022-11-24T10:12:24.591Z,100723.38
2022-11-24T10:15:22.897Z,100714.28
2022-11-24T10:17:52.988Z,100715.91
2022-11-24T10:20:43.718Z,100729.69
2022-11-24T10:23:25.728Z,100735.56
2022-11-24T10:26:15.141Z,100736.84
2022-11-24T10:28:54.786Z,100749.84
2022-11-24T10:31:35.025Z,100758.94
2022-11-24T10:34:20.480Z,100755.66
2022-11-24T10:37:14.716Z,100750.16
2022-11-24T10:39:59.877Z,100750.97
2022-11-24T10:42:41.385Z,100752.91
2022-11-24T10:45:24.976Z,100752.28
2022-11-24T10:47:55.188Z,100752.91
2022-11-24T10:50:35.134Z,100759.25
2022-11-24T10:53:18.450Z,100750.97
2022-11-24T10:55:58.069Z,100758.44
2022-11-24T10:58:39.855Z,100757.63
2022-11-24T11:01:16.217Z,100759.59
2022-11-24T11:04:01.742Z,100760.38
2022-11-24T11:06:33.843Z,100762.34
2022-11-24T11:09:09.718Z,100754.06
2022-11-24T11:11:44.744Z,100755.19
2022-11-24T11:14:15.497Z,100765.41
2022-11-24T11:16:57.905Z,100772.38
2022-11-24T11:20:01.568Z,100776.78
2022-11-24T11:22:40.462Z,100789.75
2022-11-24T11:25:13.675Z,100814.91
2022-11-24T11:27:44.407Z,100820.41
2022-11-24T11:36:21.205Z,100829.50
2022-11-24T11:38:51.441Z,100843.28
2022-11-24T11:41:42.924Z,100832.91
2022-11-24T11:44:46.604Z,100848.00
2022-11-24T11:47:38.961Z,100866.19
2022-11-24T11:50:19.811Z,100868.94
2022-11-24T11:53:03.085Z,100887.75
2022-11-24T11:55:50.113Z,100891.66
2022-11-24T11:58:57.651Z,100896.66
2022-11-24T12:01:30.900Z,100911.28
2022-11-24T12:04:23.144Z,100905.78
2022-11-24T12:07:40.527Z,100897.00
2022-11-24T12:10:32.039Z,100905.56
2022-11-24T12:13:19.852Z,100917.72
2022-11-24T12:15:52.577Z,100918.84
2022-11-24T12:18:59.991Z,100921.31
2022-11-24T12:21:49.958Z,100920.31
2022-11-24T12:24:41.022Z,100920.00
2022-11-24T12:27:26.380Z,100927.47
2022-11-24T12:30:11.970Z,100931.84
2022-11-24T12:33:13.461Z,100934.59
2022-11-24T12:35:48.889Z,100927.13
2022-11-24T12:38:40.911Z,100943.22
2022-11-24T12:41:45.613Z,100951.78
2022-11-24T12:44:54.406Z,100961.50
2022-11-24T12:47:32.012Z,100959.56
2022-11-24T12:50:14.144Z,100955.16
2022-11-24T12:52:57.182Z,100972.53
2022-11-24T12:55:30.525Z,100974.19
2022-11-24T12:58:26.991Z,100982.44
2022-11-24T13:01:16.946Z,100988.25
2022-11-24T13:04:01.233Z,100997.88
2022-11-24T13:10:54.110Z,101009.22
2022-11-24T13:13:20.303Z,100991.34
2022-11-24T13:19:03.741Z,101019.53
2022-11-24T13:21:53.152Z,101011.69
2022-11-24T13:24:33.163Z,101014.25
2022-11-24T13:27:19.002Z,100995.91
2022-11-24T13:29:54.089Z,100998.16
2022-11-24T13:32:24.489Z,101012.00
2022-11-24T13:34:57.608Z,101020.47
2022-11-24T13:37:34.261Z,101015.47
2022-11-24T13:40:15.588Z,101017.09
2022-11-24T13:43:01.107Z,101033.84
2022-11-24T13:45:50.070Z,101040.69
2022-11-24T13:48:23.617Z,101034.34
2022-11-24T13:50:54.142Z,101041.00
2022-11-24T13:53:36.411Z,101049.50
2022-11-24T13:56:12.353Z,101048.06
2022-11-24T13:58:53.531Z,101053.78
2022-11-24T14:01:30.869Z,101061.22
2022-11-24T14:04:32.317Z,101066.88
2022-11-24T14:07:14.849Z,101053.69
2022-11-24T14:09:48.286Z,101049.69
2022-11-24T14:12:27.445Z,101056.31
2022-11-24T14:15:23.194Z,101066.22
2022-11-24T14:17:53.620Z,101071.31
2022-11-24T14:20:29.230Z,101080.25
2022-11-24T14:22:59.479Z,101081.66
2022-11-24T14:25:33.498Z,101081.66
2022-11-24T14:28:04.075Z,101086.38
2022-11-24T14:30:34.468Z,101086.38
2022-11-24T14:33:06.669Z,101085.53
2022-11-24T14:35:38.325Z,101084.41
2022-11-24T14:38:09.015Z,101084.53
2022-11-24T14:40:50.837Z,101085.75
2022-11-24T14:43:27.170Z,101080.44
2022-11-24T14:46:07.415Z,101086.88
2022-11-24T14:48:55.894Z,101101.97
2022-11-24T14:51:33.671Z,101113.25
2022-11-24T14:54:16.258Z,101128.03
2022-11-24T14:57:00.997Z,101134.06
2022-11-24T14:59:33.958Z,101138.97
2022-11-24T15:02:05.198Z,101151.31
2022-11-24T15:07:29.822Z,101159.28
2022-11-24T15:10:03.249Z,101153.78
2022-11-24T15:12:41.640Z,101150.44
2022-11-24T15:15:14.751Z,101148.25
2022-11-24T15:17:56.696Z,101154.31
2022-11-24T15:20:37.536Z,101146.03
2022-11-24T15:23:27.211Z,101145.19
2022-11-24T15:26:24.793Z,101142.75
2022-11-24T15:28:57.633Z,101142.16
2022-11-24T15:31:28.157Z,101146.03
2022-11-24T15:33:58.478Z,101152.91
2022-11-24T15:36:28.902Z,101147.81
2022-11-24T15:38:59.330Z,101162.59
2022-11-24T15:41:33.071Z,101167.63
2022-11-24T15:44:05.281Z,101174.75
2022-11-24T15:46:40.824Z,101177.38
2022-11-24T15:49:11.337Z,101175.44
2022-11-24T15:51:45.908Z,101170.31
2022-11-24T15:54:21.465Z,101174.34
2022-11-24T15:56:51.894Z,101172.69
2022-11-24T15:59:22.422Z,101173.81
2022-11-24T16:01:53.052Z,101165.34
2022-11-24T16:04:23.504Z,101160.09
2022-11-24T16:06:53.945Z,101164.81
2022-11-24T16:09:24.353Z,101163.69
2022-11-24T16:11:54.847Z,101160.69
2022-11-24T16:14:26.810Z,101158.47
2022-11-24T16:16:57.180Z,101151.03
2022-11-24T16:19:29.263Z,101149.38
2022-11-24T16:21:59.593Z,101150.50
2022-11-24T16:24:29.937Z,101143.88
2022-11-24T16:27:00.380Z,101150.50
2022-11-24T16:29:35.341Z,101163.47
2022-11-24T16:32:08.861Z,101162.34
2022-11-24T16:34:39.278Z,101166.22
2022-11-24T16:37:09.633Z,101164.63
2022-11-24T16:39:40.029Z,101163.78
2022-11-24T16:42:10.771Z,101154.69
2022-11-24T16:44:41.070Z,101162.16
2022-11-24T16:47:11.800Z,101156.13
2022-11-24T16:49:42.065Z,101162.47
2022-11-24T16:52:12.499Z,101161.63
2022-11-24T16:54:43.011Z,101151.72
2022-11-24T16:57:15.239Z,101151.44
2022-11-24T16:59:48.242Z,101150.91
2022-11-24T17:02:19.013Z,101145.41
2022-11-24T17:04:49.446Z,101148.66
2022-11-24T17:10:05.381Z,101143.16
2022-11-24T17:12:38.622Z,101142.31
2022-11-24T17:15:37.925Z,101134.38
2022-11-24T17:18:28.363Z,101139.06
2022-11-24T17:21:07.821Z,101136.00
2022-11-24T17:23:59.854Z,101134.66
2022-11-24T17:26:30.643Z,101131.28
2022-11-24T17:29:01.326Z,101136.28
2022-11-24T17:31:37.761Z,101132.13
2022-11-24T17:34:10.118Z,101134.38
2022-11-24T17:37:01.663Z,101138.56
2022-11-24T17:39:31.915Z,101142.94
2022-11-24T17:42:02.246Z,101143.56
2022-11-24T17:44:33.056Z,101139.38
2022-11-24T17:47:03.596Z,101134.19
2022-11-24T17:49:33.887Z,101136.41
2022-11-24T17:52:04.198Z,101140.31
2022-11-24T17:54:49.735Z,101134.47
2022-11-24T17:57:20.030Z,101134.19
2022-11-24T17:59:50.375Z,101135.59
2022-11-24T18:02:20.844Z,101131.41
2022-11-24T18:04:52.106Z,101127.03
2022-11-24T18:07:40.490Z,101131.72
2022-11-24T18:10:28.850Z,101120.69
2022-11-24T18:12:59.668Z,101123.94
2022-11-24T18:15:29.875Z,101124.28
2022-11-24T18:18:00.102Z,101123.44
2022-11-24T18:20:31.249Z,101122.63
2022-11-24T18:23:05.908Z,101121.50
2022-11-24T18:25:39.352Z,101128.66
2022-11-24T18:28:10.615Z,101118.75
2022-11-24T18:30:40.815Z,101121.50
2022-11-24T18:33:11.392Z,101116.59
2022-11-24T18:35:43.197Z,101113.00
2022-11-24T18:38:13.626Z,101107.22
2022-11-24T18:40:44.116Z,101100.56
2022-11-24T18:43:14.482Z,101100.56
2022-11-24T18:45:44.603Z,101107.22
2022-11-24T18:48:14.630Z,101102.50
2022-11-24T18:50:45.491Z,101100.06
2022-11-24T18:53:15.543Z,101092.91
2022-11-24T18:55:46.087Z,101092.59
2022-11-24T18:58:17.264Z,101094.03
2022-11-24T19:00:47.732Z,101090.16
2022-11-24T19:03:18.075Z,101080.25
2022-11-24T19:05:48.443Z,101076.38
2022-11-24T19:08:18.732Z,101068.91
2022-11-24T19:10:49.764Z,101069.22
2022-11-24T19:13:20.360Z,101058.19
2022-11-24T19:15:51.724Z,101054.91
2022-11-24T19:18:22.105Z,101050.72
2022-11-24T19:20:52.488Z,101048.59
2022-11-24T19:23:22.709Z,101051.03
2022-11-24T19:25:52.963Z,101046.34
2022-11-24T19:28:23.242Z,101041.97
2022-11-24T19:30:53.544Z,101025.09
2022-11-24T19:33:23.820Z,101024.31
2022-11-24T19:36:05.631Z,101021.84
2022-11-24T19:38:37.393Z,101028.66
2022-11-24T19:41:13.260Z,101020.72
2022-11-24T19:43:44.076Z,101016.31
2022-11-24T19:46:16.184Z,101015.19
2022-11-24T19:48:49.522Z,101012.44
2022-11-24T19:51:23.808Z,101005.28
2022-11-24T19:53:54.286Z,100999.78
2022-11-24T19:56:26.626Z,100993.13
2022-11-24T19:58:57.899Z,100992.63
2022-11-24T20:01:33.692Z,100994.59
2022-11-24T20:04:06.815Z,100991.31
2022-11-24T20:06:42.184Z,100989.38
2022-11-24T20:09:14.417Z,100984.97
2022-11-24T20:11:45.256Z,100988.56
2022-11-24T20:14:17.622Z,100990.00
2022-11-24T20:16:49.850Z,100994.06
2022-11-24T20:19:21.118Z,100993.25
2022-11-24T20:21:52.442Z,100996.31
2022-11-24T20:24:23.665Z,100990.50
2022-11-24T20:26:58.540Z,100988.38
2022-11-24T20:29:30.526Z,100988.84
2022-11-24T20:32:00.859Z,100996.66
2022-11-24T20:34:31.285Z,101002.16
2022-11-24T20:37:01.555Z,100998.75
2022-11-24T20:39:31.895Z,101003.28
2022-11-24T20:42:01.928Z,101009.78
2022-11-24T20:44:32.632Z,101013.06
2022-11-24T20:47:05.063Z,100993.56
2022-11-24T20:49:35.329Z,101002.63
2022-11-24T20:52:05.656Z,100996.00
2022-11-24T20:54:36.172Z,100996.31
2022-11-24T20:57:06.661Z,100998.56
2022-11-24T20:59:36.943Z,100994.69
2022-11-24T21:02:07.289Z,100994.19
2022-11-24T21:04:38.845Z,101000.72
2022-11-24T21:07:09.254Z,101005.41
2022-11-24T21:09:40.418Z,100995.00
2022-11-24T21:12:10.666Z,100987.25
2022-11-24T21:14:41.035Z,100993.06
2022-11-24T21:17:11.425Z,100993.06
2022-11-24T21:19:41.615Z,100998.75
2022-11-24T21:22:11.710Z,100997.75
2022-11-24T21:24:41.786Z,101002.34
2022-11-24T21:27:11.867Z,100997.75
2022-11-24T21:29:41.843Z,101002.44
2022-11-24T21:32:13.156Z,101000.81
2022-11-24T21:34:43.405Z,101006.31
2022-11-24T21:37:13.700Z,101010.53
2022-11-24T21:39:46.745Z,101007.16
2022-11-24T21:42:17.107Z,101005.53
2022-11-24T21:44:47.395Z,101009.09
2022-11-24T21:47:17.480Z,101012.16
2022-11-24T21:49:47.543Z,101015.72
2022-11-24T21:52:18.159Z,101018.19
2022-11-24T21:54:48.204Z,101026.47
2022-11-24T21:57:18.463Z,101025.63
2022-11-24T21:59:48.622Z,101037.78
2022-11-24T22:02:18.979Z,101036.13
2022-11-24T22:04:49.049Z,101035.84
2022-11-24T22:07:19.610Z,101038.91
2022-11-24T22:09:51.301Z,101043.28
2022-11-24T22:12:21.349Z,101047.69
2022-11-24T22:14:51.468Z,101058.19
2022-11-24T22:17:21.720Z,101053.00
2022-11-24T22:19:51.908Z,101056.06
2022-11-24T22:22:22.382Z,101064.03
2022-11-24T22:24:52.573Z,101056.25
2022-11-24T22:27:23.050Z,101060.16
2022-11-24T22:29:54.314Z,101066.16
2022-11-24T22:32:24.697Z,101066.78
2022-11-24T22:34:54.735Z,101074.13
2022-11-24T22:37:25.041Z,101071.69
2022-11-24T22:39:55.239Z,101072.19
2022-11-24T22:42:25.872Z,101071.69
2022-11-24T22:44:56.278Z,101071.38
2022-11-24T22:47:26.311Z,101068.94
2022-11-24T22:49:56.493Z,101074.94
2022-11-24T22:54:57.947Z,101084.81
